createdAt,value
2017-06-26T00:02:16.111Z,24.90
2017-06-26T00:04:43.667Z,24.80
2017-06-26T00:07:11.232Z,24.70
2017-06-26T00:09:38.770Z,24.80
2017-06-26T00:12:06.347Z,24.70
2017-06-26T00:14:33.904Z,24.50
2017-06-26T00:17:01.459Z,24.50
2017-06-26T00:19:29.018Z,24.40
2017-06-26T00:21:56.585Z,24.40
2017-06-26T00:24:24.143Z,24.00
2017-06-26T00:26:51.703Z,24.00
2017-06-26T00:29:19.235Z,23.70
2017-06-26T00:31:46.819Z,23.50
2017-06-26T00:34:14.379Z,23.50
2017-06-26T00:36:41.936Z,23.60
2017-06-26T00:39:09.494Z,23.50
2017-06-26T00:41:37.051Z,23.40
2017-06-26T00:44:04.609Z,23.60
2017-06-26T00:46:32.173Z,23.80
2017-06-26T00:48:59.731Z,23.90
2017-06-26T00:51:27.287Z,24.00
2017-06-26T00:53:54.819Z,24.10
2017-06-26T00:56:22.351Z,24.10
2017-06-26T00:58:50.659Z,23.90
2017-06-26T01:01:18.239Z,23.80
2017-06-26T01:03:45.810Z,23.90
2017-06-26T01:06:13.359Z,23.70
2017-06-26T01:08:40.915Z,23.80
2017-06-26T01:11:08.480Z,23.90
2017-06-26T01:13:36.036Z,23.90
2017-06-26T01:16:03.559Z,23.90
2017-06-26T01:18:31.158Z,23.80
2017-06-26T01:20:58.715Z,23.80
2017-06-26T01:23:26.271Z,23.50
2017-06-26T01:25:53.803Z,23.20
2017-06-26T01:28:21.332Z,23.20
2017-06-26T01:30:49.663Z,22.80
2017-06-26T01:33:17.235Z,22.80
2017-06-26T01:35:44.770Z,22.90
2017-06-26T01:38:12.342Z,23.00
2017-06-26T01:40:39.871Z,22.60
2017-06-26T01:43:07.550Z,22.40
2017-06-26T01:45:35.079Z,22.50
2017-06-26T01:48:02.684Z,22.50
2017-06-26T01:50:30.239Z,22.20
2017-06-26T01:52:57.799Z,22.10
2017-06-26T01:55:25.364Z,22.10
2017-06-26T01:57:52.887Z,22.20
2017-06-26T02:00:20.488Z,22.30
2017-06-26T02:02:48.239Z,22.60
2017-06-26T02:05:15.763Z,22.40
2017-06-26T02:07:43.355Z,22.40
2017-06-26T02:10:10.915Z,22.60
2017-06-26T02:12:38.479Z,22.50
2017-06-26T02:15:06.031Z,22.20
2017-06-26T02:17:33.595Z,22.20
2017-06-26T02:20:01.138Z,22.20
2017-06-26T02:22:28.707Z,22.10
2017-06-26T02:24:56.243Z,22.00
2017-06-26T02:27:23.803Z,21.90
2017-06-26T02:29:51.391Z,22.00
2017-06-26T02:32:18.947Z,22.20
2017-06-26T02:34:46.503Z,22.40
2017-06-26T02:37:14.068Z,22.50
2017-06-26T02:39:41.623Z,22.20
2017-06-26T02:42:09.192Z,21.90
2017-06-26T02:44:36.715Z,21.70
2017-06-26T02:47:04.299Z,21.80
2017-06-26T02:49:31.864Z,21.90
2017-06-26T02:51:59.423Z,22.10
2017-06-26T02:54:26.975Z,22.40
2017-06-26T02:56:54.535Z,22.60
2017-06-26T02:59:22.094Z,22.80
2017-06-26T03:01:49.653Z,22.70
2017-06-26T03:04:17.183Z,22.60
2017-06-26T03:06:44.727Z,22.70
2017-06-26T03:09:13.051Z,22.80
2017-06-26T03:11:52.587Z,22.80
2017-06-26T03:14:20.111Z,22.70
2017-06-26T03:16:47.703Z,22.60
2017-06-26T03:19:15.245Z,22.60
2017-06-26T03:21:42.766Z,22.70
2017-06-26T03:24:11.103Z,22.90
2017-06-26T03:26:38.655Z,22.80
2017-06-26T03:29:06.183Z,22.80
2017-06-26T03:31:33.776Z,22.90
2017-06-26T03:34:01.298Z,23.00
2017-06-26T03:36:28.895Z,23.00
2017-06-26T03:38:56.455Z,23.00
2017-06-26T03:41:23.983Z,22.80
2017-06-26T03:43:51.567Z,23.00
2017-06-26T03:46:19.130Z,23.20
2017-06-26T03:48:46.692Z,23.10
2017-06-26T03:51:14.247Z,23.10
2017-06-26T03:53:41.779Z,23.20
2017-06-26T03:56:09.312Z,23.20
2017-06-26T03:58:37.643Z,22.80
2017-06-26T04:01:05.192Z,22.80
2017-06-26T04:03:32.754Z,22.80
2017-06-26T04:06:00.283Z,22.80
2017-06-26T04:08:27.811Z,22.60
2017-06-26T04:10:56.114Z,22.20
2017-06-26T04:13:23.713Z,22.20
2017-06-26T04:15:51.267Z,22.30
2017-06-26T04:18:18.831Z,22.60
2017-06-26T04:20:46.359Z,22.80
2017-06-26T04:23:13.949Z,23.00
2017-06-26T04:25:41.487Z,23.00
2017-06-26T04:28:09.066Z,22.90
2017-06-26T04:30:36.626Z,23.00
2017-06-26T04:33:04.187Z,22.80
2017-06-26T04:35:31.743Z,22.80
2017-06-26T04:37:59.299Z,22.80
2017-06-26T04:40:26.832Z,23.00
2017-06-26T04:42:54.424Z,23.10
2017-06-26T04:45:21.954Z,23.40
2017-06-26T04:47:49.537Z,23.60
2017-06-26T04:50:17.095Z,23.70
2017-06-26T04:52:44.619Z,23.40
2017-06-26T04:55:12.147Z,23.00
2017-06-26T04:57:39.686Z,23.30
2017-06-26T05:00:07.231Z,23.40
2017-06-26T05:02:34.773Z,23.50
2017-06-26T05:05:02.307Z,23.40
2017-06-26T05:07:29.916Z,23.50
2017-06-26T05:09:57.467Z,23.70
2017-06-26T05:12:24.999Z,24.00
2017-06-26T05:14:52.534Z,23.80
2017-06-26T05:17:20.863Z,24.10
2017-06-26T05:19:48.419Z,24.10
2017-06-26T05:22:15.974Z,23.90
2017-06-26T05:24:43.539Z,24.00
2017-06-26T05:27:11.080Z,23.80
2017-06-26T05:29:38.655Z,23.90
2017-06-26T05:32:06.188Z,24.00
2017-06-26T05:34:33.718Z,24.20
2017-06-26T05:37:02.051Z,24.70
2017-06-26T05:39:29.708Z,24.70
2017-06-26T05:41:57.267Z,24.80
2017-06-26T05:44:24.807Z,24.70
2017-06-26T05:46:52.330Z,24.10
2017-06-26T05:49:20.663Z,24.10
2017-06-26T05:51:48.224Z,24.10
2017-06-26T05:54:15.761Z,24.10
2017-06-26T05:56:43.339Z,24.00
2017-06-26T05:59:10.903Z,24.00
2017-06-26T06:01:38.463Z,24.10
2017-06-26T06:04:06.119Z,24.20
2017-06-26T06:06:33.642Z,23.90
2017-06-26T06:09:01.239Z,23.80
2017-06-26T06:11:28.763Z,24.00
2017-06-26T06:13:56.354Z,24.00
2017-06-26T06:16:24.115Z,23.60
2017-06-26T06:18:51.679Z,23.80
2017-06-26T06:21:19.239Z,24.20
2017-06-26T06:23:46.798Z,24.20
2017-06-26T06:26:14.355Z,24.00
2017-06-26T06:28:41.897Z,24.00
2017-06-26T06:31:09.423Z,24.10
2017-06-26T06:33:37.726Z,23.60
2017-06-26T06:36:05.267Z,23.70
2017-06-26T06:38:32.870Z,23.70
2017-06-26T06:41:00.404Z,23.90
2017-06-26T06:43:27.983Z,24.20
2017-06-26T06:45:55.545Z,24.40
2017-06-26T06:48:23.099Z,24.10
2017-06-26T06:50:50.631Z,24.20
2017-06-26T06:53:18.171Z,24.40
2017-06-26T06:55:46.499Z,25.00
2017-06-26T06:58:14.033Z,25.00
2017-06-26T07:00:41.611Z,24.60
2017-06-26T07:03:09.171Z,24.40
2017-06-26T07:05:36.715Z,24.50
2017-06-26T07:08:04.243Z,24.40
2017-06-26T07:10:32.534Z,24.10
2017-06-26T07:13:00.062Z,24.00
2017-06-26T07:15:28.358Z,24.00
2017-06-26T07:17:55.896Z,24.00
2017-06-26T07:20:24.236Z,24.50
2017-06-26T07:22:51.772Z,24.50
2017-06-26T07:25:19.363Z,24.90
2017-06-26T07:27:46.904Z,25.40
2017-06-26T07:30:14.447Z,25.30
2017-06-26T07:32:42.035Z,25.40
2017-06-26T07:35:09.591Z,25.20
2017-06-26T07:37:37.147Z,24.70
2017-06-26T07:40:04.707Z,24.70
2017-06-26T07:42:32.263Z,24.60
2017-06-26T07:44:59.790Z,24.70
2017-06-26T07:47:27.387Z,24.50
2017-06-26T07:49:54.917Z,24.40
2017-06-26T07:52:22.500Z,24.60
2017-06-26T07:54:50.059Z,24.60
2017-06-26T07:57:17.619Z,24.40
2017-06-26T07:59:45.175Z,24.60
2017-06-26T08:02:12.711Z,24.60
2017-06-26T08:04:40.238Z,24.60
2017-06-26T08:07:08.571Z,24.20
2017-06-26T08:09:36.094Z,24.20
2017-06-26T08:12:03.688Z,24.30
2017-06-26T08:14:31.247Z,24.30
2017-06-26T08:17:02.817Z,24.40
2017-06-26T08:19:30.450Z,24.60
2017-06-26T08:21:58.009Z,24.80
2017-06-26T08:24:25.541Z,24.80
2017-06-26T08:26:53.058Z,25.10
2017-06-26T08:29:20.685Z,25.30
2017-06-26T08:31:48.246Z,25.10
2017-06-26T08:34:15.781Z,24.90
2017-06-26T08:36:43.366Z,24.60
2017-06-26T08:39:10.926Z,24.60
2017-06-26T08:41:38.454Z,24.80
2017-06-26T08:44:06.050Z,25.00
2017-06-26T08:46:33.606Z,24.70
2017-06-26T08:49:01.162Z,24.60
2017-06-26T08:51:28.718Z,24.70
2017-06-26T08:53:56.361Z,24.60
2017-06-26T08:56:23.947Z,24.60
2017-06-26T08:58:51.506Z,24.50
2017-06-26T09:01:19.030Z,24.50
2017-06-26T09:03:46.553Z,24.60
2017-06-26T09:06:14.073Z,24.60
2017-06-26T09:08:41.629Z,24.70
2017-06-26T09:11:09.199Z,24.90
2017-06-26T09:13:36.722Z,25.20
2017-06-26T09:16:04.306Z,25.50
2017-06-26T09:18:31.867Z,25.50
2017-06-26T09:20:59.405Z,25.90
2017-06-26T09:23:26.985Z,26.40
2017-06-26T09:25:54.506Z,26.40
2017-06-26T09:28:22.822Z,26.40
2017-06-26T09:30:50.378Z,26.40
2017-06-26T09:33:17.906Z,26.40
2017-06-26T09:35:46.191Z,25.70
2017-06-26T09:38:13.786Z,25.70
2017-06-26T09:40:41.334Z,25.30
2017-06-26T09:43:08.894Z,25.10
2017-06-26T09:45:36.453Z,24.80
2017-06-26T09:48:04.009Z,24.70
2017-06-26T09:50:31.570Z,24.60
2017-06-26T09:52:59.126Z,24.40
2017-06-26T09:55:26.683Z,24.60
2017-06-26T09:57:54.241Z,24.70
2017-06-26T10:00:21.757Z,24.70
2017-06-26T10:02:50.078Z,25.40
2017-06-26T10:05:17.638Z,25.40
2017-06-26T10:07:45.157Z,25.70
2017-06-26T10:10:13.449Z,26.40
2017-06-26T10:12:41.033Z,26.30
2017-06-26T10:15:08.597Z,26.40
2017-06-26T10:17:36.149Z,26.50
2017-06-26T10:20:03.678Z,26.40
2017-06-26T10:22:31.282Z,26.20
2017-06-26T10:24:58.836Z,26.00
2017-06-26T10:27:26.390Z,25.90
2017-06-26T10:29:53.946Z,26.00
2017-06-26T10:32:21.469Z,25.90
2017-06-26T10:34:49.778Z,25.70
2017-06-26T10:37:17.300Z,25.60
2017-06-26T10:39:45.618Z,26.20
2017-06-26T10:42:13.174Z,26.20
2017-06-26T10:44:40.733Z,26.50
2017-06-26T10:47:08.274Z,26.90
2017-06-26T10:49:35.802Z,26.80
2017-06-26T10:52:04.087Z,27.60
2017-06-26T10:54:32.381Z,27.90
2017-06-26T10:56:59.970Z,27.90
2017-06-26T10:59:27.509Z,28.40
2017-06-26T11:01:55.087Z,29.00
2017-06-26T11:04:22.641Z,29.30
2017-06-26T11:06:50.170Z,29.40
2017-06-26T11:09:17.686Z,29.40
2017-06-26T11:11:45.222Z,29.60
2017-06-26T11:14:12.749Z,29.10
2017-06-26T11:16:40.335Z,28.20
2017-06-26T11:19:07.899Z,28.00
2017-06-26T11:21:35.418Z,28.20
2017-06-26T11:24:03.018Z,28.70
2017-06-26T11:26:30.574Z,29.30
2017-06-26T11:28:58.094Z,29.40
2017-06-26T11:31:26.405Z,29.20
2017-06-26T11:33:53.965Z,29.20
2017-06-26T11:36:21.537Z,29.10
2017-06-26T11:38:49.079Z,29.10
2017-06-26T11:41:16.641Z,28.90
2017-06-26T11:43:44.209Z,28.50
2017-06-26T11:46:11.726Z,28.30
2017-06-26T11:48:39.317Z,28.10
2017-06-26T11:51:06.841Z,27.60
2017-06-26T11:53:34.445Z,27.60
2017-06-26T11:56:02.001Z,27.50
2017-06-26T11:58:29.562Z,27.70
2017-06-26T12:00:57.093Z,27.50
2017-06-26T12:03:24.609Z,27.40
2017-06-26T12:05:52.138Z,27.50
2017-06-26T12:08:19.653Z,27.60
2017-06-26T12:10:47.938Z,28.40
2017-06-26T12:13:18.478Z,28.40
2017-06-26T12:15:46.865Z,28.40
2017-06-26T12:18:14.425Z,28.40
2017-06-26T12:20:41.993Z,28.00
2017-06-26T12:23:09.547Z,27.90
2017-06-26T12:25:37.132Z,28.00
2017-06-26T12:28:04.765Z,28.10
2017-06-26T12:30:32.334Z,28.30
2017-06-26T12:32:59.858Z,27.90
2017-06-26T12:35:27.443Z,28.10
2017-06-26T12:37:55.010Z,28.70
2017-06-26T12:40:22.557Z,28.90
2017-06-26T12:42:50.125Z,29.40
2017-06-26T12:45:17.685Z,29.10
2017-06-26T12:47:45.209Z,29.00
2017-06-26T12:50:12.730Z,28.60
2017-06-26T12:52:40.341Z,28.60
2017-06-26T12:55:07.914Z,28.50
2017-06-26T12:57:35.478Z,28.00
2017-06-26T13:00:03.038Z,27.60
2017-06-26T13:02:30.594Z,27.20
2017-06-26T13:04:58.163Z,27.10
2017-06-26T13:07:25.745Z,27.00
2017-06-26T13:09:53.266Z,27.30
2017-06-26T13:12:21.647Z,27.70
2017-06-26T13:14:49.219Z,27.80
2017-06-26T13:17:16.766Z,27.80
2017-06-26T13:19:44.326Z,27.90
2017-06-26T13:22:11.841Z,28.20
2017-06-26T13:24:40.139Z,28.50
2017-06-26T13:27:07.722Z,28.50
2017-06-26T13:29:35.277Z,28.00
2017-06-26T13:32:02.838Z,27.90
2017-06-26T13:34:30.349Z,28.10
2017-06-26T13:36:58.687Z,27.60
2017-06-26T13:39:26.233Z,27.60
2017-06-26T13:41:53.791Z,27.40
2017-06-26T13:44:21.345Z,27.30
2017-06-26T13:46:48.906Z,27.10
2017-06-26T13:49:16.474Z,27.00
2017-06-26T13:51:44.025Z,27.10
2017-06-26T13:54:11.589Z,26.80
2017-06-26T13:56:39.130Z,26.60
2017-06-26T13:59:06.702Z,26.70
2017-06-26T14:01:34.265Z,26.40
2017-06-26T14:04:01.827Z,26.50
2017-06-26T14:06:29.382Z,26.80
2017-06-26T14:08:56.937Z,27.00
2017-06-26T14:11:24.502Z,27.30
2017-06-26T14:13:52.035Z,27.60
2017-06-26T14:16:19.617Z,27.80
2017-06-26T14:18:47.173Z,27.50
2017-06-26T14:21:14.734Z,27.20
2017-06-26T14:23:42.258Z,27.10
2017-06-26T14:26:09.866Z,26.70
2017-06-26T14:28:37.389Z,26.30
2017-06-26T14:31:04.982Z,25.60
2017-06-26T14:33:32.510Z,25.40
2017-06-26T14:36:00.086Z,25.10
2017-06-26T14:38:27.649Z,25.10
2017-06-26T14:40:55.181Z,25.20
2017-06-26T14:43:22.756Z,25.30
2017-06-26T14:45:50.289Z,25.30
2017-06-26T14:48:17.863Z,25.20
2017-06-26T14:50:45.396Z,25.10
2017-06-26T14:53:13.726Z,24.90
2017-06-26T14:55:41.273Z,24.90
2017-06-26T14:58:08.849Z,24.80
2017-06-26T15:00:36.377Z,24.80
2017-06-26T15:03:03.958Z,25.00
2017-06-26T15:05:31.513Z,25.00
2017-06-26T15:07:59.175Z,25.20
2017-06-26T15:10:26.738Z,25.60
2017-06-26T15:12:54.289Z,25.70
2017-06-26T15:15:21.809Z,26.10
2017-06-26T15:17:50.098Z,26.30
2017-06-26T15:20:17.622Z,26.20
2017-06-26T15:22:45.250Z,26.40
2017-06-26T15:25:12.806Z,26.30
2017-06-26T15:27:40.321Z,26.20
2017-06-26T15:30:08.638Z,26.60
2017-06-26T15:32:36.193Z,26.60
2017-06-26T15:35:03.766Z,27.30
2017-06-26T15:37:31.313Z,27.80
2017-06-26T15:39:58.873Z,27.90
2017-06-26T15:42:26.442Z,27.90
2017-06-26T15:44:53.989Z,27.90
2017-06-26T15:47:21.556Z,28.10
2017-06-26T15:49:49.116Z,28.20
2017-06-26T15:52:16.677Z,27.60
2017-06-26T15:54:44.206Z,27.50
2017-06-26T15:57:11.888Z,27.70
2017-06-26T15:59:39.463Z,27.90
2017-06-26T16:02:07.030Z,28.00
2017-06-26T16:04:34.559Z,28.30
2017-06-26T16:07:02.088Z,28.30
2017-06-26T16:09:30.416Z,28.30
2017-06-26T16:11:57.980Z,28.30
2017-06-26T16:14:25.531Z,28.40
2017-06-26T16:16:53.095Z,28.40
2017-06-26T16:19:20.647Z,28.40
2017-06-26T16:21:48.180Z,28.40
2017-06-26T16:24:15.716Z,28.10
2017-06-26T16:26:44.034Z,27.40
2017-06-26T16:29:11.603Z,27.40
2017-06-26T16:31:39.159Z,27.10
2017-06-26T16:34:06.696Z,27.00
2017-06-26T16:36:34.279Z,26.90
2017-06-26T16:39:01.805Z,27.10
2017-06-26T16:41:29.398Z,27.00
2017-06-26T16:43:56.927Z,27.00
2017-06-26T16:46:24.457Z,26.80
2017-06-26T16:48:52.776Z,26.60
2017-06-26T16:51:20.351Z,26.50
2017-06-26T16:53:47.912Z,26.50
2017-06-26T16:56:15.471Z,26.40
2017-06-26T16:58:43.031Z,26.60
2017-06-26T17:01:10.591Z,26.80
2017-06-26T17:03:38.143Z,26.90
2017-06-26T17:06:05.711Z,27.10
2017-06-26T17:08:33.375Z,26.80
2017-06-26T17:11:00.899Z,26.60
2017-06-26T17:13:28.443Z,26.50
2017-06-26T17:15:55.975Z,26.60
2017-06-26T17:18:23.503Z,26.50
2017-06-26T17:20:51.027Z,26.40
2017-06-26T17:23:18.621Z,26.40
2017-06-26T17:25:46.275Z,26.40
2017-06-26T17:28:13.834Z,26.40
2017-06-26T17:30:41.400Z,26.50
2017-06-26T17:33:08.924Z,26.60
2017-06-26T17:35:36.516Z,26.70
2017-06-26T17:38:04.071Z,26.70
2017-06-26T17:40:31.631Z,26.60
2017-06-26T17:42:59.190Z,26.60
2017-06-26T17:45:27.570Z,26.60
2017-06-26T17:47:55.134Z,26.70
2017-06-26T17:50:22.686Z,26.60
2017-06-26T17:52:50.220Z,26.60
2017-06-26T17:55:17.812Z,26.60
2017-06-26T17:57:45.367Z,26.60
2017-06-26T18:00:12.905Z,26.40
2017-06-26T18:02:40.484Z,26.20
2017-06-26T18:05:08.040Z,25.90
2017-06-26T18:07:35.599Z,25.80
2017-06-26T18:10:03.140Z,26.00
2017-06-26T18:12:30.675Z,26.10
2017-06-26T18:14:58.270Z,25.90
2017-06-26T18:17:25.840Z,26.00
2017-06-26T18:19:53.399Z,26.00
2017-06-26T18:22:20.928Z,26.10
2017-06-26T18:24:48.459Z,26.00
2017-06-26T18:27:16.771Z,25.90
2017-06-26T18:29:44.351Z,25.90
2017-06-26T18:32:11.908Z,26.00
2017-06-26T18:34:39.468Z,26.10
2017-06-26T18:37:07.023Z,26.10
2017-06-26T18:39:34.583Z,26.10
2017-06-26T18:42:02.143Z,26.10
2017-06-26T18:44:29.702Z,26.10
2017-06-26T18:46:57.263Z,25.90
2017-06-26T18:49:24.819Z,26.00
2017-06-26T18:51:52.483Z,26.00
2017-06-26T18:54:20.049Z,26.00
2017-06-26T18:56:47.570Z,26.00
2017-06-26T18:59:15.160Z,26.00
2017-06-26T19:01:42.719Z,25.90
2017-06-26T19:04:10.263Z,25.90
2017-06-26T19:06:37.792Z,25.80
2017-06-26T19:09:05.387Z,25.80
2017-06-26T19:11:32.915Z,25.80
2017-06-26T19:14:00.452Z,25.80
2017-06-26T19:16:28.795Z,25.70
2017-06-26T19:18:56.351Z,25.70
2017-06-26T19:21:23.907Z,25.70
2017-06-26T19:23:51.450Z,25.70
2017-06-26T19:26:19.022Z,25.70
2017-06-26T19:28:46.583Z,25.60
2017-06-26T19:31:14.123Z,25.60
2017-06-26T19:33:41.703Z,25.50
2017-06-26T19:36:09.264Z,25.50
2017-06-26T19:38:36.839Z,25.40
2017-06-26T19:41:04.378Z,25.40
2017-06-26T19:43:31.924Z,25.40
2017-06-26T19:45:59.483Z,25.40
2017-06-26T19:48:27.006Z,25.30
2017-06-26T19:50:55.307Z,25.20
2017-06-26T19:53:22.891Z,25.20
2017-06-26T19:55:50.427Z,25.10
2017-06-26T19:58:17.955Z,25.10
2017-06-26T20:00:46.255Z,25.10
2017-06-26T20:03:13.846Z,25.10
2017-06-26T20:05:41.398Z,25.10
2017-06-26T20:08:08.935Z,25.10
2017-06-26T20:10:36.523Z,25.10
2017-06-26T20:13:04.078Z,25.10
2017-06-26T20:15:31.639Z,25.00
2017-06-26T20:17:59.207Z,25.00
2017-06-26T20:20:26.755Z,25.00
2017-06-26T20:22:54.319Z,24.90
2017-06-26T20:25:21.876Z,25.00
2017-06-26T20:27:49.435Z,24.90
2017-06-26T20:30:16.972Z,24.80
2017-06-26T20:32:44.519Z,24.80
2017-06-26T20:35:12.106Z,24.80
2017-06-26T20:37:39.672Z,24.70
2017-06-26T20:40:07.200Z,24.60
2017-06-26T20:42:34.746Z,24.60
2017-06-26T20:45:02.275Z,24.70
2017-06-26T20:47:29.915Z,24.60
2017-06-26T20:49:57.439Z,24.40
2017-06-26T20:52:25.019Z,24.40
2017-06-26T20:54:52.562Z,24.50
2017-06-26T20:57:20.143Z,24.50
2017-06-26T20:59:47.724Z,24.40
2017-06-26T21:02:15.367Z,24.40
2017-06-26T21:04:42.891Z,24.50
2017-06-26T21:07:10.487Z,24.50
2017-06-26T21:09:38.050Z,24.50
2017-06-26T21:12:05.703Z,24.50
2017-06-26T21:14:33.239Z,24.50
2017-06-26T21:17:00.814Z,24.50
2017-06-26T21:19:28.378Z,24.40
2017-06-26T21:21:55.906Z,24.30
2017-06-26T21:24:23.503Z,24.30
2017-06-26T21:26:51.038Z,24.20
2017-06-26T21:29:18.616Z,24.10
2017-06-26T21:31:46.171Z,24.20
2017-06-26T21:34:13.727Z,24.30
2017-06-26T21:36:41.286Z,24.20
2017-06-26T21:39:08.827Z,24.30
2017-06-26T21:41:36.495Z,24.30
2017-06-26T21:44:04.067Z,24.20
2017-06-26T21:46:31.595Z,24.30
2017-06-26T21:48:59.119Z,24.20
2017-06-26T21:51:26.751Z,24.20
2017-06-26T21:53:54.275Z,24.20
2017-06-26T21:56:21.869Z,24.10
2017-06-26T21:58:49.431Z,24.10
2017-06-26T22:01:16.979Z,24.00
2017-06-26T22:03:44.506Z,24.00
2017-06-26T22:06:12.099Z,24.00
2017-06-26T22:08:39.632Z,23.90
2017-06-26T22:11:07.231Z,23.90
2017-06-26T22:13:34.768Z,23.90
2017-06-26T22:16:02.342Z,23.80
2017-06-26T22:18:29.900Z,23.60
2017-06-26T22:20:57.996Z,23.70
2017-06-26T22:23:25.575Z,23.60
2017-06-26T22:25:53.886Z,23.70
2017-06-26T22:28:21.465Z,23.70
2017-06-26T22:30:49.025Z,23.70
2017-06-26T22:33:16.580Z,23.60
2017-06-26T22:35:51.739Z,23.70
2017-06-26T22:48:14.596Z,23.30
2017-06-26T22:56:45.747Z,23.30
2017-06-26T23:05:42.939Z,23.50
2017-06-26T23:14:11.159Z,23.40
2017-06-26T23:16:57.299Z,23.40
2017-06-26T23:25:04.814Z,23.30
2017-06-26T23:27:32.395Z,23.30
2017-06-26T23:29:59.919Z,23.30
2017-06-26T23:32:27.447Z,23.30
2017-06-26T23:34:54.978Z,23.30
2017-06-26T23:37:22.608Z,23.40
2017-06-26T23:39:50.181Z,23.30
2017-06-26T23:42:17.758Z,23.30
2017-06-26T23:44:45.314Z,23.20
2017-06-26T23:47:12.854Z,23.10
2017-06-26T23:49:40.416Z,23.20
2017-06-26T23:52:07.970Z,23.20
2017-06-26T23:54:35.526Z,23.30
2017-06-26T23:57:03.085Z,23.20
2017-06-26T23:59:30.596Z,23.10
